sensor_id;sensor_type;location;lat;lon;timestamp;P1;durP1;ratioP1;P2;durP2;ratioP2
17866;SDS011;9059;49.934;8.650;2022-08-25T00:00:00;4.15;;;1.77;;
17866;SDS011;9059;49.934;8.650;2022-08-25T00:01:01;4.40;;;2.30;;
17866;SDS011;9059;49.934;8.650;2022-08-25T00:02:09;5.53;;;2.20;;
17866;SDS011;9059;49.934;8.650;2022-08-25T00:03:11;2.70;;;1.98;;
17866;SDS011;9059;49.934;8.650;2022-08-25T00:04:13;2.15;;;1.70;;
17866;SDS011;9059;49.934;8.650;2022-08-25T00:05:15;3.63;;;2.05;;
17866;SDS011;9059;49.934;8.650;2022-08-25T00:06:17;2.53;;;1.65;;
17866;SDS011;9059;49.934;8.650;2022-08-25T00:07:20;3.80;;;2.00;;
17866;SDS011;9059;49.934;8.650;2022-08-25T00:08:22;2.47;;;1.70;;
17866;SDS011;9059;49.934;8.650;2022-08-25T00:09:24;4.28;;;2.10;;
17866;SDS011;9059;49.934;8.650;2022-08-25T00:10:27;2.95;;;2.10;;
17866;SDS011;9059;49.934;8.650;2022-08-25T00:11:28;2.95;;;1.92;;
17866;SDS011;9059;49.934;8.650;2022-08-25T00:12:31;2.75;;;2.00;;
17866;SDS011;9059;49.934;8.650;2022-08-25T00:13:33;4.13;;;2.38;;
17866;SDS011;9059;49.934;8.650;2022-08-25T00:14:34;3.28;;;2.20;;
17866;SDS011;9059;49.934;8.650;2022-08-25T00:15:37;5.35;;;2.25;;
17866;SDS011;9059;49.934;8.650;2022-08-25T00:16:38;4.43;;;2.45;;
17866;SDS011;9059;49.934;8.650;2022-08-25T00:17:40;3.90;;;2.47;;
17866;SDS011;9059;49.934;8.650;2022-08-25T00:18:41;3.60;;;2.17;;
17866;SDS011;9059;49.934;8.650;2022-08-25T00:19:44;4.22;;;2.17;;
17866;SDS011;9059;49.934;8.650;2022-08-25T00:20:45;3.97;;;2.40;;
17866;SDS011;9059;49.934;8.650;2022-08-25T00:21:47;5.00;;;2.10;;
17866;SDS011;9059;49.934;8.650;2022-08-25T00:22:49;5.38;;;1.95;;
17866;SDS011;9059;49.934;8.650;2022-08-25T00:23:51;5.47;;;2.45;;
17866;SDS011;9059;49.934;8.650;2022-08-25T00:24:52;3.78;;;2.20;;
17866;SDS011;9059;49.934;8.650;2022-08-25T00:25:54;3.35;;;2.25;;
17866;SDS011;9059;49.934;8.650;2022-08-25T00:26:56;6.68;;;2.10;;
17866;SDS011;9059;49.934;8.650;2022-08-25T00:27:58;6.45;;;2.28;;
17866;SDS011;9059;49.934;8.650;2022-08-25T00:28:59;2.55;;;1.83;;
17866;SDS011;9059;49.934;8.650;2022-08-25T00:30:01;2.92;;;2.22;;
17866;SDS011;9059;49.934;8.650;2022-08-25T00:31:03;5.40;;;2.00;;
17866;SDS011;9059;49.934;8.650;2022-08-25T00:32:06;4.50;;;2.10;;
17866;SDS011;9059;49.934;8.650;2022-08-25T00:33:07;6.65;;;2.40;;
17866;SDS011;9059;49.934;8.650;2022-08-25T00:34:10;2.80;;;1.98;;
17866;SDS011;9059;49.934;8.650;2022-08-25T00:35:13;3.38;;;2.15;;
17866;SDS011;9059;49.934;8.650;2022-08-25T00:36:16;3.33;;;2.30;;
17866;SDS011;9059;49.934;8.650;2022-08-25T00:37:18;4.68;;;1.70;;
17866;SDS011;9059;49.934;8.650;2022-08-25T00:38:21;4.25;;;2.20;;
17866;SDS011;9059;49.934;8.650;2022-08-25T00:39:22;3.50;;;2.30;;
17866;SDS011;9059;49.934;8.650;2022-08-25T00:40:25;4.25;;;2.55;;
17866;SDS011;9059;49.934;8.650;2022-08-25T00:41:27;4.25;;;2.38;;
17866;SDS011;9059;49.934;8.650;2022-08-25T00:42:29;3.25;;;2.08;;
17866;SDS011;9059;49.934;8.650;2022-08-25T00:43:32;3.05;;;2.00;;
17866;SDS011;9059;49.934;8.650;2022-08-25T00:44:35;3.30;;;1.90;;
17866;SDS011;9059;49.934;8.650;2022-08-25T00:45:37;5.47;;;2.30;;
17866;SDS011;9059;49.934;8.650;2022-08-25T00:46:39;4.50;;;2.17;;
17866;SDS011;9059;49.934;8.650;2022-08-25T00:47:42;2.40;;;1.98;;
17866;SDS011;9059;49.934;8.650;2022-08-25T00:48:43;10.15;;;2.50;;
17866;SDS011;9059;49.934;8.650;2022-08-25T00:49:47;3.97;;;2.22;;
17866;SDS011;9059;49.934;8.650;2022-08-25T00:50:49;4.15;;;2.55;;
17866;SDS011;9059;49.934;8.650;2022-08-25T00:51:52;3.72;;;2.40;;
17866;SDS011;9059;49.934;8.650;2022-08-25T00:52:55;5.68;;;2.28;;
17866;SDS011;9059;49.934;8.650;2022-08-25T00:54:00;3.50;;;2.13;;
17866;SDS011;9059;49.934;8.650;2022-08-25T00:55:03;6.45;;;2.75;;
17866;SDS011;9059;49.934;8.650;2022-08-25T00:56:06;4.63;;;2.50;;
17866;SDS011;9059;49.934;8.650;2022-08-25T00:57:07;3.85;;;2.40;;
17866;SDS011;9059;49.934;8.650;2022-08-25T00:58:10;2.85;;;2.20;;
17866;SDS011;9059;49.934;8.650;2022-08-25T00:59:15;4.43;;;2.20;;
17866;SDS011;9059;49.934;8.650;2022-08-25T01:00:19;3.72;;;2.40;;
17866;SDS011;9059;49.934;8.650;2022-08-25T01:01:22;3.75;;;2.17;;
17866;SDS011;9059;49.934;8.650;2022-08-25T01:02:24;3.75;;;2.30;;
17866;SDS011;9059;49.934;8.650;2022-08-25T01:03:25;3.13;;;2.20;;
17866;SDS011;9059;49.934;8.650;2022-08-25T01:04:28;3.05;;;2.13;;
17866;SDS011;9059;49.934;8.650;2022-08-25T01:05:29;4.60;;;2.20;;
17866;SDS011;9059;49.934;8.650;2022-08-25T01:06:31;5.18;;;2.13;;
17866;SDS011;9059;49.934;8.650;2022-08-25T01:07:33;4.03;;;2.10;;
17866;SDS011;9059;49.934;8.650;2022-08-25T01:08:36;3.53;;;2.00;;
17866;SDS011;9059;49.934;8.650;2022-08-25T01:09:38;4.57;;;2.45;;
17866;SDS011;9059;49.934;8.650;2022-08-25T01:10:42;7.82;;;2.70;;
17866;SDS011;9059;49.934;8.650;2022-08-25T01:11:43;2.80;;;2.10;;
17866;SDS011;9059;49.934;8.650;2022-08-25T01:12:45;3.08;;;2.17;;
17866;SDS011;9059;49.934;8.650;2022-08-25T01:13:47;6.22;;;2.50;;
17866;SDS011;9059;49.934;8.650;2022-08-25T01:14:54;5.07;;;2.47;;
17866;SDS011;9059;49.934;8.650;2022-08-25T01:15:56;7.72;;;2.42;;
17866;SDS011;9059;49.934;8.650;2022-08-25T01:16:58;5.22;;;2.38;;
17866;SDS011;9059;49.934;8.650;2022-08-25T01:17:59;4.47;;;2.60;;
17866;SDS011;9059;49.934;8.650;2022-08-25T01:19:02;2.33;;;2.00;;
17866;SDS011;9059;49.934;8.650;2022-08-25T01:20:03;4.63;;;2.60;;
17866;SDS011;9059;49.934;8.650;2022-08-25T01:21:07;6.80;;;2.28;;
17866;SDS011;9059;49.934;8.650;2022-08-25T01:22:07;5.05;;;2.70;;
17866;SDS011;9059;49.934;8.650;2022-08-25T01:23:11;3.17;;;2.30;;
17866;SDS011;9059;49.934;8.650;2022-08-25T01:24:15;3.33;;;2.20;;
17866;SDS011;9059;49.934;8.650;2022-08-25T01:25:24;3.38;;;2.38;;
17866;SDS011;9059;49.934;8.650;2022-08-25T01:26:34;6.20;;;2.33;;
17866;SDS011;9059;49.934;8.650;2022-08-25T01:27:36;6.15;;;2.50;;
17866;SDS011;9059;49.934;8.650;2022-08-25T01:28:37;3.83;;;2.50;;
17866;SDS011;9059;49.934;8.650;2022-08-25T01:29:59;3.63;;;2.58;;
17866;SDS011;9059;49.934;8.650;2022-08-25T01:31:01;3.42;;;2.10;;
17866;SDS011;9059;49.934;8.650;2022-08-25T01:32:07;4.60;;;2.50;;
17866;SDS011;9059;49.934;8.650;2022-08-25T01:33:09;4.55;;;2.65;;
17866;SDS011;9059;49.934;8.650;2022-08-25T01:34:14;2.60;;;2.08;;
17866;SDS011;9059;49.934;8.650;2022-08-25T01:35:15;3.58;;;2.13;;
17866;SDS011;9059;49.934;8.650;2022-08-25T01:36:20;7.07;;;2.50;;
17866;SDS011;9059;49.934;8.650;2022-08-25T01:37:21;4.53;;;2.75;;
17866;SDS011;9059;49.934;8.650;2022-08-25T01:38:23;4.60;;;2.38;;
17866;SDS011;9059;49.934;8.650;2022-08-25T01:39:24;9.55;;;2.72;;
17866;SDS011;9059;49.934;8.650;2022-08-25T01:40:27;5.47;;;2.60;;
17866;SDS011;9059;49.934;8.650;2022-08-25T01:41:30;4.05;;;2.40;;
17866;SDS011;9059;49.934;8.650;2022-08-25T01:42:41;3.38;;;2.47;;
17866;SDS011;9059;49.934;8.650;2022-08-25T01:43:47;5.22;;;2.45;;
17866;SDS011;9059;49.934;8.650;2022-08-25T01:44:49;5.20;;;2.50;;
17866;SDS011;9059;49.934;8.650;2022-08-25T01:45:49;6.30;;;2.65;;
17866;SDS011;9059;49.934;8.650;2022-08-25T01:46:51;3.95;;;2.42;;
17866;SDS011;9059;49.934;8.650;2022-08-25T01:47:53;5.85;;;2.95;;
17866;SDS011;9059;49.934;8.650;2022-08-25T01:48:55;3.90;;;2.53;;
17866;SDS011;9059;49.934;8.650;2022-08-25T01:49:56;4.57;;;2.55;;
17866;SDS011;9059;49.934;8.650;2022-08-25T01:50:58;4.88;;;2.50;;
17866;SDS011;9059;49.934;8.650;2022-08-25T01:52:01;3.45;;;2.65;;
17866;SDS011;9059;49.934;8.650;2022-08-25T01:53:08;5.82;;;2.63;;
17866;SDS011;9059;49.934;8.650;2022-08-25T01:54:13;3.08;;;2.30;;
17866;SDS011;9059;49.934;8.650;2022-08-25T01:55:15;4.18;;;2.42;;
17866;SDS011;9059;49.934;8.650;2022-08-25T01:56:16;5.63;;;2.40;;
17866;SDS011;9059;49.934;8.650;2022-08-25T01:57:18;8.02;;;2.78;;
17866;SDS011;9059;49.934;8.650;2022-08-25T01:58:19;4.72;;;2.45;;
17866;SDS011;9059;49.934;8.650;2022-08-25T01:59:22;4.78;;;2.65;;
17866;SDS011;9059;49.934;8.650;2022-08-25T02:00:23;4.90;;;2.30;;
17866;SDS011;9059;49.934;8.650;2022-08-25T02:01:24;5.07;;;2.40;;
17866;SDS011;9059;49.934;8.650;2022-08-25T02:02:25;5.22;;;2.58;;
17866;SDS011;9059;49.934;8.650;2022-08-25T02:03:27;5.28;;;2.47;;
17866;SDS011;9059;49.934;8.650;2022-08-25T02:04:29;3.08;;;2.10;;
17866;SDS011;9059;49.934;8.650;2022-08-25T02:05:31;4.07;;;2.40;;
17866;SDS011;9059;49.934;8.650;2022-08-25T02:06:32;4.55;;;2.42;;
17866;SDS011;9059;49.934;8.650;2022-08-25T02:07:36;4.15;;;2.45;;
17866;SDS011;9059;49.934;8.650;2022-08-25T02:08:37;3.13;;;2.40;;
17866;SDS011;9059;49.934;8.650;2022-08-25T02:09:39;5.65;;;2.20;;
17866;SDS011;9059;49.934;8.650;2022-08-25T02:10:40;3.97;;;2.70;;
17866;SDS011;9059;49.934;8.650;2022-08-25T02:11:42;3.05;;;2.40;;
17866;SDS011;9059;49.934;8.650;2022-08-25T02:12:45;6.13;;;2.33;;
17866;SDS011;9059;49.934;8.650;2022-08-25T02:13:46;7.53;;;2.45;;
17866;SDS011;9059;49.934;8.650;2022-08-25T02:14:48;4.25;;;2.70;;
17866;SDS011;9059;49.934;8.650;2022-08-25T02:15:50;6.50;;;3.03;;
17866;SDS011;9059;49.934;8.650;2022-08-25T02:16:52;5.95;;;2.47;;
17866;SDS011;9059;49.934;8.650;2022-08-25T02:17:55;7.10;;;2.60;;
17866;SDS011;9059;49.934;8.650;2022-08-25T02:18:56;3.92;;;2.40;;
17866;SDS011;9059;49.934;8.650;2022-08-25T02:20:01;5.28;;;2.65;;
17866;SDS011;9059;49.934;8.650;2022-08-25T02:21:02;7.72;;;2.67;;
17866;SDS011;9059;49.934;8.650;2022-08-25T02:22:04;5.85;;;3.17;;
17866;SDS011;9059;49.934;8.650;2022-08-25T02:23:07;4.75;;;2.70;;
17866;SDS011;9059;49.934;8.650;2022-08-25T02:24:09;4.63;;;2.70;;
17866;SDS011;9059;49.934;8.650;2022-08-25T02:25:11;3.60;;;2.65;;
17866;SDS011;9059;49.934;8.650;2022-08-25T02:26:13;6.03;;;2.40;;
17866;SDS011;9059;49.934;8.650;2022-08-25T02:27:18;5.97;;;2.40;;
17866;SDS011;9059;49.934;8.650;2022-08-25T02:28:20;3.22;;;2.35;;
17866;SDS011;9059;49.934;8.650;2022-08-25T02:29:20;5.57;;;2.42;;
17866;SDS011;9059;49.934;8.650;2022-08-25T02:30:22;4.03;;;2.53;;
17866;SDS011;9059;49.934;8.650;2022-08-25T02:31:23;4.97;;;2.83;;
17866;SDS011;9059;49.934;8.650;2022-08-25T02:32:25;3.78;;;2.65;;
17866;SDS011;9059;49.934;8.650;2022-08-25T02:33:27;4.35;;;2.67;;
17866;SDS011;9059;49.934;8.650;2022-08-25T02:34:29;5.97;;;2.80;;
17866;SDS011;9059;49.934;8.650;2022-08-25T02:35:29;3.92;;;2.40;;
17866;SDS011;9059;49.934;8.650;2022-08-25T02:36:31;5.72;;;2.70;;
17866;SDS011;9059;49.934;8.650;2022-08-25T02:37:32;5.15;;;2.50;;
17866;SDS011;9059;49.934;8.650;2022-08-25T02:38:36;4.68;;;2.85;;
17866;SDS011;9059;49.934;8.650;2022-08-25T02:39:38;4.93;;;2.50;;
17866;SDS011;9059;49.934;8.650;2022-08-25T02:40:39;3.35;;;2.45;;
17866;SDS011;9059;49.934;8.650;2022-08-25T02:41:40;4.07;;;2.50;;
17866;SDS011;9059;49.934;8.650;2022-08-25T02:42:42;3.85;;;2.35;;
17866;SDS011;9059;49.934;8.650;2022-08-25T02:43:44;4.93;;;2.88;;
17866;SDS011;9059;49.934;8.650;2022-08-25T02:44:45;3.85;;;2.60;;
17866;SDS011;9059;49.934;8.650;2022-08-25T02:45:47;3.33;;;2.50;;
17866;SDS011;9059;49.934;8.650;2022-08-25T02:46:48;7.32;;;2.60;;
17866;SDS011;9059;49.934;8.650;2022-08-25T02:47:50;4.07;;;2.60;;
17866;SDS011;9059;49.934;8.650;2022-08-25T02:48:50;4.28;;;2.40;;
17866;SDS011;9059;49.934;8.650;2022-08-25T02:49:52;3.72;;;2.30;;
17866;SDS011;9059;49.934;8.650;2022-08-25T02:50:54;4.18;;;2.80;;
17866;SDS011;9059;49.934;8.650;2022-08-25T02:52:00;4.18;;;2.30;;
17866;SDS011;9059;49.934;8.650;2022-08-25T02:53:01;5.43;;;2.47;;
17866;SDS011;9059;49.934;8.650;2022-08-25T02:54:04;4.03;;;2.70;;
17866;SDS011;9059;49.934;8.650;2022-08-25T02:55:07;4.03;;;2.40;;
17866;SDS011;9059;49.934;8.650;2022-08-25T02:56:13;4.22;;;2.42;;
17866;SDS011;9059;49.934;8.650;2022-08-25T02:57:14;6.03;;;2.60;;
17866;SDS011;9059;49.934;8.650;2022-08-25T02:58:17;4.32;;;2.80;;
17866;SDS011;9059;49.934;8.650;2022-08-25T02:59:18;5.80;;;2.33;;
17866;SDS011;9059;49.934;8.650;2022-08-25T03:00:20;6.20;;;2.65;;
17866;SDS011;9059;49.934;8.650;2022-08-25T03:01:21;5.55;;;2.45;;
17866;SDS011;9059;49.934;8.650;2022-08-25T03:02:22;3.83;;;2.55;;
17866;SDS011;9059;49.934;8.650;2022-08-25T03:03:23;6.97;;;2.95;;
17866;SDS011;9059;49.934;8.650;2022-08-25T03:04:25;5.57;;;2.33;;
17866;SDS011;9059;49.934;8.650;2022-08-25T03:05:28;4.57;;;2.20;;
17866;SDS011;9059;49.934;8.650;2022-08-25T03:06:29;3.85;;;2.40;;
17866;SDS011;9059;49.934;8.650;2022-08-25T03:07:31;6.65;;;2.42;;
17866;SDS011;9059;49.934;8.650;2022-08-25T03:08:31;3.63;;;2.30;;
17866;SDS011;9059;49.934;8.650;2022-08-25T03:09:35;4.80;;;2.75;;
17866;SDS011;9059;49.934;8.650;2022-08-25T03:10:35;4.30;;;2.60;;
17866;SDS011;9059;49.934;8.650;2022-08-25T03:11:37;4.55;;;2.33;;
17866;SDS011;9059;49.934;8.650;2022-08-25T03:12:38;4.18;;;2.60;;
17866;SDS011;9059;49.934;8.650;2022-08-25T03:13:41;7.82;;;2.80;;
17866;SDS011;9059;49.934;8.650;2022-08-25T03:14:42;4.72;;;2.58;;
17866;SDS011;9059;49.934;8.650;2022-08-25T03:15:44;5.95;;;2.50;;
17866;SDS011;9059;49.934;8.650;2022-08-25T03:16:45;4.50;;;2.42;;
17866;SDS011;9059;49.934;8.650;2022-08-25T03:17:47;6.65;;;2.88;;
17866;SDS011;9059;49.934;8.650;2022-08-25T03:18:48;8.65;;;2.65;;
17866;SDS011;9059;49.934;8.650;2022-08-25T03:19:50;4.32;;;2.60;;
17866;SDS011;9059;49.934;8.650;2022-08-25T03:20:51;5.63;;;2.72;;
17866;SDS011;9059;49.934;8.650;2022-08-25T03:21:53;7.75;;;2.88;;
17866;SDS011;9059;49.934;8.650;2022-08-25T03:22:56;6.32;;;2.58;;
17866;SDS011;9059;49.934;8.650;2022-08-25T03:23:58;5.80;;;3.00;;
17866;SDS011;9059;49.934;8.650;2022-08-25T03:25:00;7.10;;;2.45;;
17866;SDS011;9059;49.934;8.650;2022-08-25T03:26:15;4.35;;;2.60;;
17866;SDS011;9059;49.934;8.650;2022-08-25T03:27:34;4.85;;;3.00;;
17866;SDS011;9059;49.934;8.650;2022-08-25T03:28:36;6.25;;;2.60;;
17866;SDS011;9059;49.934;8.650;2022-08-25T03:29:38;3.45;;;2.50;;
17866;SDS011;9059;49.934;8.650;2022-08-25T03:30:40;4.43;;;2.60;;
17866;SDS011;9059;49.934;8.650;2022-08-25T03:31:41;5.97;;;2.30;;
17866;SDS011;9059;49.934;8.650;2022-08-25T03:32:43;6.40;;;3.05;;
17866;SDS011;9059;49.934;8.650;2022-08-25T03:33:44;6.18;;;2.83;;
17866;SDS011;9059;49.934;8.650;2022-08-25T03:34:46;4.57;;;2.53;;
17866;SDS011;9059;49.934;8.650;2022-08-25T03:35:46;4.47;;;2.72;;
17866;SDS011;9059;49.934;8.650;2022-08-25T03:36:49;3.28;;;2.30;;
17866;SDS011;9059;49.934;8.650;2022-08-25T03:37:54;6.03;;;2.53;;
17866;SDS011;9059;49.934;8.650;2022-08-25T03:38:55;7.00;;;2.67;;
17866;SDS011;9059;49.934;8.650;2022-08-25T03:39:57;5.40;;;2.70;;
17866;SDS011;9059;49.934;8.650;2022-08-25T03:40:59;3.42;;;2.50;;
17866;SDS011;9059;49.934;8.650;2022-08-25T03:42:01;4.57;;;2.53;;
17866;SDS011;9059;49.934;8.650;2022-08-25T03:43:03;3.75;;;2.67;;
17866;SDS011;9059;49.934;8.650;2022-08-25T03:44:05;3.67;;;2.50;;
17866;SDS011;9059;49.934;8.650;2022-08-25T03:45:07;5.18;;;2.63;;
17866;SDS011;9059;49.934;8.650;2022-08-25T03:46:15;5.03;;;2.80;;
17866;SDS011;9059;49.934;8.650;2022-08-25T03:47:18;7.82;;;2.85;;
17866;SDS011;9059;49.934;8.650;2022-08-25T03:48:20;4.45;;;3.03;;
17866;SDS011;9059;49.934;8.650;2022-08-25T03:49:21;4.90;;;3.08;;
17866;SDS011;9059;49.934;8.650;2022-08-25T03:50:23;6.85;;;2.58;;
17866;SDS011;9059;49.934;8.650;2022-08-25T03:51:26;3.28;;;2.40;;
17866;SDS011;9059;49.934;8.650;2022-08-25T03:52:28;9.68;;;2.83;;
17866;SDS011;9059;49.934;8.650;2022-08-25T03:53:29;6.38;;;2.70;;
17866;SDS011;9059;49.934;8.650;2022-08-25T03:54:30;6.60;;;3.00;;
17866;SDS011;9059;49.934;8.650;2022-08-25T03:55:31;5.20;;;2.70;;
17866;SDS011;9059;49.934;8.650;2022-08-25T03:56:34;10.13;;;2.58;;
17866;SDS011;9059;49.934;8.650;2022-08-25T03:57:35;4.15;;;2.70;;
17866;SDS011;9059;49.934;8.650;2022-08-25T03:58:38;5.63;;;2.80;;
17866;SDS011;9059;49.934;8.650;2022-08-25T03:59:38;6.35;;;2.65;;
17866;SDS011;9059;49.934;8.650;2022-08-25T04:00:40;5.95;;;2.90;;
17866;SDS011;9059;49.934;8.650;2022-08-25T04:01:42;5.00;;;3.05;;
17866;SDS011;9059;49.934;8.650;2022-08-25T04:02:44;4.72;;;2.78;;
17866;SDS011;9059;49.934;8.650;2022-08-25T04:03:45;4.43;;;2.50;;
17866;SDS011;9059;49.934;8.650;2022-08-25T04:04:47;5.57;;;2.58;;
17866;SDS011;9059;49.934;8.650;2022-08-25T04:05:49;6.15;;;3.35;;
17866;SDS011;9059;49.934;8.650;2022-08-25T04:06:51;3.90;;;2.70;;
17866;SDS011;9059;49.934;8.650;2022-08-25T04:07:52;6.85;;;2.70;;
17866;SDS011;9059;49.934;8.650;2022-08-25T04:08:55;6.55;;;2.67;;
17866;SDS011;9059;49.934;8.650;2022-08-25T04:09:57;4.50;;;3.00;;
17866;SDS011;9059;49.934;8.650;2022-08-25T04:10:58;3.90;;;2.50;;
17866;SDS011;9059;49.934;8.650;2022-08-25T04:12:06;4.82;;;2.95;;
17866;SDS011;9059;49.934;8.650;2022-08-25T04:13:08;5.88;;;3.10;;
17866;SDS011;9059;49.934;8.650;2022-08-25T04:14:09;5.32;;;2.80;;
17866;SDS011;9059;49.934;8.650;2022-08-25T04:15:11;4.60;;;3.15;;
17866;SDS011;9059;49.934;8.650;2022-08-25T04:16:13;6.47;;;3.05;;
17866;SDS011;9059;49.934;8.650;2022-08-25T04:17:17;8.88;;;3.35;;
17866;SDS011;9059;49.934;8.650;2022-08-25T04:18:18;5.57;;;3.15;;
17866;SDS011;9059;49.934;8.650;2022-08-25T04:19:20;4.60;;;3.17;;
17866;SDS011;9059;49.934;8.650;2022-08-25T04:20:21;5.97;;;2.97;;
17866;SDS011;9059;49.934;8.650;2022-08-25T04:21:23;4.95;;;3.15;;
17866;SDS011;9059;49.934;8.650;2022-08-25T04:22:25;8.88;;;3.38;;
17866;SDS011;9059;49.934;8.650;2022-08-25T04:23:26;5.70;;;3.50;;
17866;SDS011;9059;49.934;8.650;2022-08-25T04:24:27;5.88;;;3.05;;
17866;SDS011;9059;49.934;8.650;2022-08-25T04:25:29;6.95;;;3.38;;
17866;SDS011;9059;49.934;8.650;2022-08-25T04:26:31;6.82;;;3.67;;
17866;SDS011;9059;49.934;8.650;2022-08-25T04:27:35;5.43;;;3.15;;
17866;SDS011;9059;49.934;8.650;2022-08-25T04:28:36;6.10;;;3.42;;
17866;SDS011;9059;49.934;8.650;2022-08-25T04:29:38;6.07;;;3.33;;
17866;SDS011;9059;49.934;8.650;2022-08-25T04:30:40;5.90;;;3.58;;
17866;SDS011;9059;49.934;8.650;2022-08-25T04:31:43;5.07;;;3.30;;
17866;SDS011;9059;49.934;8.650;2022-08-25T04:32:45;4.95;;;3.40;;
17866;SDS011;9059;49.934;8.650;2022-08-25T04:33:48;6.57;;;3.67;;
17866;SDS011;9059;49.934;8.650;2022-08-25T04:34:49;7.65;;;3.67;;
17866;SDS011;9059;49.934;8.650;2022-08-25T04:35:51;5.20;;;3.35;;
17866;SDS011;9059;49.934;8.650;2022-08-25T04:36:52;9.55;;;3.58;;
17866;SDS011;9059;49.934;8.650;2022-08-25T04:37:53;6.63;;;3.70;;
17866;SDS011;9059;49.934;8.650;2022-08-25T04:38:55;8.23;;;3.70;;
17866;SDS011;9059;49.934;8.650;2022-08-25T04:39:56;9.85;;;3.45;;
17866;SDS011;9059;49.934;8.650;2022-08-25T04:40:58;5.40;;;3.40;;
17866;SDS011;9059;49.934;8.650;2022-08-25T04:42:00;8.20;;;3.47;;
17866;SDS011;9059;49.934;8.650;2022-08-25T04:43:03;7.35;;;3.67;;
17866;SDS011;9059;49.934;8.650;2022-08-25T04:44:04;5.03;;;3.05;;
17866;SDS011;9059;49.934;8.650;2022-08-25T04:45:06;6.95;;;3.60;;
17866;SDS011;9059;49.934;8.650;2022-08-25T04:46:08;5.38;;;3.50;;
17866;SDS011;9059;49.934;8.650;2022-08-25T04:47:11;6.00;;;3.58;;
17866;SDS011;9059;49.934;8.650;2022-08-25T04:48:12;8.43;;;3.67;;
17866;SDS011;9059;49.934;8.650;2022-08-25T04:49:14;6.07;;;3.67;;
17866;SDS011;9059;49.934;8.650;2022-08-25T04:50:15;6.07;;;3.50;;
17866;SDS011;9059;49.934;8.650;2022-08-25T04:51:17;9.95;;;3.80;;
17866;SDS011;9059;49.934;8.650;2022-08-25T04:52:19;9.38;;;3.53;;
17866;SDS011;9059;49.934;8.650;2022-08-25T04:53:21;6.43;;;3.47;;
17866;SDS011;9059;49.934;8.650;2022-08-25T04:54:23;6.25;;;3.20;;
17866;SDS011;9059;49.934;8.650;2022-08-25T04:55:24;12.23;;;3.45;;
17866;SDS011;9059;49.934;8.650;2022-08-25T04:56:25;8.32;;;3.55;;
17866;SDS011;9059;49.934;8.650;2022-08-25T04:57:27;6.95;;;3.35;;
17866;SDS011;9059;49.934;8.650;2022-08-25T04:58:29;7.70;;;3.42;;
17866;SDS011;9059;49.934;8.650;2022-08-25T04:59:31;7.97;;;3.50;;
17866;SDS011;9059;49.934;8.650;2022-08-25T05:00:32;6.10;;;3.28;;
17866;SDS011;9059;49.934;8.650;2022-08-25T05:01:35;5.55;;;3.40;;
17866;SDS011;9059;49.934;8.650;2022-08-25T05:02:37;8.40;;;3.60;;
17866;SDS011;9059;49.934;8.650;2022-08-25T05:03:38;6.72;;;3.50;;
17866;SDS011;9059;49.934;8.650;2022-08-25T05:04:39;6.38;;;3.50;;
17866;SDS011;9059;49.934;8.650;2022-08-25T05:05:41;4.97;;;3.40;;
17866;SDS011;9059;49.934;8.650;2022-08-25T05:06:42;7.07;;;3.45;;
17866;SDS011;9059;49.934;8.650;2022-08-25T05:07:44;5.70;;;3.33;;
17866;SDS011;9059;49.934;8.650;2022-08-25T05:08:46;9.18;;;3.58;;
17866;SDS011;9059;49.934;8.650;2022-08-25T05:09:47;5.35;;;3.20;;
17866;SDS011;9059;49.934;8.650;2022-08-25T05:10:49;10.80;;;3.60;;
17866;SDS011;9059;49.934;8.650;2022-08-25T05:11:49;8.77;;;3.30;;
17866;SDS011;9059;49.934;8.650;2022-08-25T05:12:51;7.13;;;3.63;;
17866;SDS011;9059;49.934;8.650;2022-08-25T05:13:54;6.20;;;3.75;;
17866;SDS011;9059;49.934;8.650;2022-08-25T05:14:56;5.30;;;3.50;;
17866;SDS011;9059;49.934;8.650;2022-08-25T05:16:18;5.05;;;3.58;;
17866;SDS011;9059;49.934;8.650;2022-08-25T05:17:20;6.32;;;3.60;;
17866;SDS011;9059;49.934;8.650;2022-08-25T05:18:21;4.82;;;3.00;;
17866;SDS011;9059;49.934;8.650;2022-08-25T05:19:24;6.53;;;3.75;;
17866;SDS011;9059;49.934;8.650;2022-08-25T05:20:25;7.00;;;3.50;;
17866;SDS011;9059;49.934;8.650;2022-08-25T05:21:27;5.60;;;3.60;;
17866;SDS011;9059;49.934;8.650;2022-08-25T05:22:28;6.45;;;3.80;;
17866;SDS011;9059;49.934;8.650;2022-08-25T05:23:29;6.47;;;3.38;;
17866;SDS011;9059;49.934;8.650;2022-08-25T05:24:30;6.07;;;3.35;;
17866;SDS011;9059;49.934;8.650;2022-08-25T05:25:32;7.55;;;3.60;;
17866;SDS011;9059;49.934;8.650;2022-08-25T05:26:33;4.68;;;3.40;;
17866;SDS011;9059;49.934;8.650;2022-08-25T05:27:36;13.65;;;3.75;;
17866;SDS011;9059;49.934;8.650;2022-08-25T05:28:37;8.98;;;3.60;;
17866;SDS011;9059;49.934;8.650;2022-08-25T05:29:42;5.72;;;3.95;;
17866;SDS011;9059;49.934;8.650;2022-08-25T05:30:43;7.50;;;3.70;;
17866;SDS011;9059;49.934;8.650;2022-08-25T05:31:44;7.47;;;3.33;;
17866;SDS011;9059;49.934;8.650;2022-08-25T05:32:45;6.65;;;3.75;;
17866;SDS011;9059;49.934;8.650;2022-08-25T05:33:47;5.53;;;3.78;;
17866;SDS011;9059;49.934;8.650;2022-08-25T05:34:48;5.93;;;3.63;;
17866;SDS011;9059;49.934;8.650;2022-08-25T05:35:49;7.80;;;3.85;;
17866;SDS011;9059;49.934;8.650;2022-08-25T05:36:51;6.50;;;3.75;;
17866;SDS011;9059;49.934;8.650;2022-08-25T05:37:53;6.10;;;4.20;;
17866;SDS011;9059;49.934;8.650;2022-08-25T05:38:56;7.90;;;4.05;;
17866;SDS011;9059;49.934;8.650;2022-08-25T05:39:58;7.10;;;4.20;;
17866;SDS011;9059;49.934;8.650;2022-08-25T05:41:00;13.43;;;3.88;;
17866;SDS011;9059;49.934;8.650;2022-08-25T05:42:04;6.22;;;3.70;;
17866;SDS011;9059;49.934;8.650;2022-08-25T05:43:06;6.18;;;3.65;;
17866;SDS011;9059;49.934;8.650;2022-08-25T05:44:06;10.68;;;3.78;;
17866;SDS011;9059;49.934;8.650;2022-08-25T05:45:10;6.88;;;3.85;;
17866;SDS011;9059;49.934;8.650;2022-08-25T05:46:11;6.10;;;3.90;;
17866;SDS011;9059;49.934;8.650;2022-08-25T05:47:13;6.28;;;3.97;;
17866;SDS011;9059;49.934;8.650;2022-08-25T05:48:14;7.05;;;3.88;;
17866;SDS011;9059;49.934;8.650;2022-08-25T05:49:15;8.05;;;4.20;;
17866;SDS011;9059;49.934;8.650;2022-08-25T05:50:16;6.25;;;3.90;;
17866;SDS011;9059;49.934;8.650;2022-08-25T05:51:18;7.20;;;4.25;;
17866;SDS011;9059;49.934;8.650;2022-08-25T05:52:19;6.97;;;4.15;;
17866;SDS011;9059;49.934;8.650;2022-08-25T05:53:21;6.05;;;3.72;;
17866;SDS011;9059;49.934;8.650;2022-08-25T05:54:22;7.93;;;4.07;;
17866;SDS011;9059;49.934;8.650;2022-08-25T05:55:24;5.88;;;3.72;;
17866;SDS011;9059;49.934;8.650;2022-08-25T05:56:25;5.68;;;3.75;;
17866;SDS011;9059;49.934;8.650;2022-08-25T05:57:27;7.30;;;3.78;;
17866;SDS011;9059;49.934;8.650;2022-08-25T05:58:27;6.40;;;4.20;;
17866;SDS011;9059;49.934;8.650;2022-08-25T05:59:30;6.43;;;3.90;;
17866;SDS011;9059;49.934;8.650;2022-08-25T06:00:32;7.65;;;4.00;;
17866;SDS011;9059;49.934;8.650;2022-08-25T06:01:34;6.00;;;3.88;;
17866;SDS011;9059;49.934;8.650;2022-08-25T06:02:56;7.20;;;3.95;;
17866;SDS011;9059;49.934;8.650;2022-08-25T06:03:56;8.02;;;4.15;;
17866;SDS011;9059;49.934;8.650;2022-08-25T06:04:59;8.63;;;4.18;;
17866;SDS011;9059;49.934;8.650;2022-08-25T06:06:03;6.00;;;4.50;;
17866;SDS011;9059;49.934;8.650;2022-08-25T06:07:06;10.73;;;4.60;;
17866;SDS011;9059;49.934;8.650;2022-08-25T06:08:07;5.82;;;3.85;;
17866;SDS011;9059;49.934;8.650;2022-08-25T06:09:08;10.48;;;4.20;;
17866;SDS011;9059;49.934;8.650;2022-08-25T06:10:10;9.43;;;4.00;;
17866;SDS011;9059;49.934;8.650;2022-08-25T06:11:11;8.70;;;4.20;;
17866;SDS011;9059;49.934;8.650;2022-08-25T06:12:13;6.93;;;4.35;;
17866;SDS011;9059;49.934;8.650;2022-08-25T06:13:15;7.53;;;4.28;;
17866;SDS011;9059;49.934;8.650;2022-08-25T06:14:15;8.30;;;4.47;;
17866;SDS011;9059;49.934;8.650;2022-08-25T06:15:18;10.38;;;4.35;;
17866;SDS011;9059;49.934;8.650;2022-08-25T06:16:22;9.05;;;4.72;;
17866;SDS011;9059;49.934;8.650;2022-08-25T06:17:23;5.68;;;4.15;;
17866;SDS011;9059;49.934;8.650;2022-08-25T06:18:25;9.25;;;4.50;;
17866;SDS011;9059;49.934;8.650;2022-08-25T06:19:26;10.82;;;4.13;;
17866;SDS011;9059;49.934;8.650;2022-08-25T06:20:29;9.02;;;4.20;;